Terminal Aerodrome Forecast
Issued by NWS

Home | Current Version | Previous Version | Text Only | Print | Product List | Glossary On
Versions: 1 2 3 4 5 6 7 8 9 10 11 12 13 14 15 16 17 18 19 20 21 22
000
FTUS41 KCAR 211400 AAB
TAFPQI
TAF AMD
KPQI 211433Z 2115/2212 VRB03KT P6SM BKN008
     FM211500 06005KT P6SM SCT050
     FM220700 10004KT P6SM BKN045
      AMD LTD TO CLD VIS AND WIND=

USA.gov is the U.S. government's official web portal to all federal, state and local government web resources and services.